Terminal Aerodrome Forecast
Issued by NWS

Home | Current Version | Previous Version | Text Only | Print | Product List | Glossary Off
Versions: 1 2 3 4 5 6 7 8 9 10 11 12 13 14 15 16 17 18 19 20 21 22 23 24 25 26 27 28

430
FTUS43 KLOT 200244 AAA
TAFORD
TAF AMD
KORD 200244Z 2003/2106 17011KT P6SM BKN045 BKN250
     FM200800 19008KT 4SM -SHRA OVC035
     FM201100 20006KT 5SM BR OVC012
     FM201500 26004KT 3SM BR VCSH OVC007
      TEMPO 2016/2018 -SHRA
     FM201900 02012KT P6SM OVC008
     FM210000 02010KT P6SM BKN015
     FM210400 02008KT P6SM BKN250=

USA.gov is the U.S. government's official web portal to all federal, state and local government web resources and services.